Time;durP1;ratioP1;P1;durP2;ratioP2;P2;SDS_P1;SDS_P2;PMS_P1;PMS_P2;Temp;Humidity;BMP_temperature;BMP_pressure;BME280_temperature;BME280_humidity;BME280_pressure;Samples;Min_cycle;Max_cycle;Signal;HPM_P1;HPM_P2
2022/04/12 00:00:19;;;;;;;9.10;5.80;;;6.80;99.90;;;;;;5037619;28;20065;-86
2022/04/12 00:02:46;;;;;;;11.48;5.93;;;6.80;99.90;;;;;;5046767;28;20110;-86
2022/04/12 00:05:12;;;;;;;10.00;5.97;;;6.80;99.90;;;;;;5051440;28;20029;-85
2022/04/12 00:07:39;;;;;;;12.50;5.95;;;6.80;99.90;;;;;;5051651;28;20035;-85
2022/04/12 00:10:06;;;;;;;9.55;5.60;;;6.80;99.90;;;;;;5051291;28;20087;-85
2022/04/12 00:12:32;;;;;;;9.93;6.57;;;6.80;99.90;;;;;;5039708;28;20116;-86
2022/04/12 00:14:57;;;;;;;11.82;6.30;;;6.70;99.90;;;;;;5031538;28;20064;-80
2022/04/12 00:20:09;;;;;;;8.68;5.93;;;6.70;99.90;;;;;;5031338;28;20037;-84
2022/04/12 00:22:35;;;;;;;9.32;5.57;;;6.70;99.90;;;;;;5049592;28;20082;-85
2022/04/12 00:25:02;;;;;;;8.57;5.68;;;6.60;99.90;;;;;;5051496;28;20025;-85
2022/04/12 00:27:28;;;;;;;10.60;6.55;;;6.60;99.90;;;;;;5044796;28;20393;-85
2022/04/12 00:29:54;;;;;;;10.75;5.88;;;6.50;99.90;;;;;;5031746;28;20037;-77
2022/04/12 00:32:20;;;;;;;10.30;6.32;;;6.50;99.90;;;;;;5041386;28;20029;-86
2022/04/12 00:34:45;;;;;;;10.57;6.05;;;6.60;99.90;;;;;;5060640;28;20104;-84
2022/04/12 00:37:11;;;;;;;9.10;5.60;;;6.60;99.90;;;;;;5055079;28;20367;-86
2022/04/12 00:39:37;;;;;;;8.68;5.80;;;6.50;99.90;;;;;;5055509;28;20028;-86
2022/04/12 00:42:04;;;;;;;10.23;5.90;;;6.50;99.90;;;;;;5047748;28;20030;-85
2022/04/12 00:44:30;;;;;;;11.45;6.32;;;6.50;99.90;;;;;;5035703;28;20040;-86
2022/04/12 00:46:56;;;;;;;10.10;6.05;;;6.50;99.90;;;;;;5052728;28;20044;-76
2022/04/12 00:49:23;;;;;;;11.90;6.40;;;6.40;99.90;;;;;;5054893;28;20033;-85
2022/04/12 00:51:49;;;;;;;8.43;6.07;;;6.40;99.90;;;;;;5052908;28;20036;-85
2022/04/12 00:54:19;;;;;;;10.23;6.47;;;6.40;99.90;;;;;;5050153;28;20045;-85
2022/04/12 00:56:48;;;;;;;8.75;6.00;;;6.50;99.90;;;;;;5037068;28;20421;-85
2022/04/12 00:59:14;;;;;;;12.68;6.20;;;6.40;99.90;;;;;;5034572;28;20495;-85
2022/04/12 01:01:40;;;;;;;10.63;6.57;;;6.40;99.90;;;;;;5039219;28;20032;-84
2022/04/12 01:04:06;;;;;;;8.35;5.90;;;6.40;99.90;;;;;;5054721;28;20346;-85
2022/04/12 01:06:32;;;;;;;9.82;5.82;;;6.40;99.90;;;;;;5055487;28;20021;-85
2022/04/12 01:08:58;;;;;;;10.70;6.35;;;6.30;99.90;;;;;;5054413;28;20478;-78
2022/04/12 01:11:26;;;;;;;8.82;5.88;;;6.30;99.90;;;;;;5053494;28;20032;-85
2022/04/12 01:13:52;;;;;;;8.38;5.43;;;6.30;99.90;;;;;;5034682;28;20391;-84
2022/04/12 01:16:17;;;;;;;8.27;5.32;;;6.20;99.90;;;;;;5034068;28;20043;-85
2022/04/12 01:18:43;;;;;;;9.10;5.95;;;6.10;99.90;;;;;;5034847;28;20131;-84
2022/04/12 01:21:09;;;;;;;7.18;5.43;;;6.10;99.90;;;;;;5034628;28;20021;-84
2022/04/12 01:23:38;;;;;;;6.57;5.30;;;6.00;99.90;;;;;;5053666;28;20032;-84
2022/04/12 01:26:05;;;;;;;8.30;5.78;;;6.00;99.90;;;;;;5054148;28;20155;-83
2022/04/12 01:28:31;;;;;;;8.77;5.20;;;5.90;99.90;;;;;;5053211;28;20429;-84
2022/04/12 01:30:56;;;;;;;9.27;6.32;;;5.90;99.90;;;;;;5054659;28;20025;-78
2022/04/12 01:33:22;;;;;;;7.30;5.22;;;5.80;99.90;;;;;;5036557;28;20048;-82
2022/04/12 01:35:48;;;;;;;9.38;5.78;;;5.80;99.90;;;;;;5034512;28;20028;-83
2022/04/12 01:38:13;;;;;;;10.32;5.93;;;5.70;99.90;;;;;;5033435;28;20117;-81
2022/04/12 01:40:39;;;;;;;7.22;5.10;;;5.70;99.90;;;;;;5034067;28;20061;-83
2022/04/12 01:43:05;;;;;;;6.88;5.20;;;5.60;99.90;;;;;;5048292;28;20029;-83
2022/04/12 01:45:30;;;;;;;8.02;4.78;;;5.70;99.90;;;;;;5049272;28;20517;-83
2022/04/12 01:47:56;;;;;;;7.53;5.20;;;5.70;99.90;;;;;;5035064;28;20033;-76
2022/04/12 01:50:22;;;;;;;9.27;5.70;;;5.60;99.90;;;;;;5034760;28;20037;-83
2022/04/12 01:52:47;;;;;;;8.50;5.53;;;5.60;99.90;;;;;;5033179;28;20395;-83
2022/04/12 01:55:17;;;;;;;8.98;5.45;;;5.60;99.90;;;;;;5019361;28;20029;-83
2022/04/12 01:57:42;;;;;;;7.97;5.00;;;5.50;99.90;;;;;;5020266;28;20136;-82
2022/04/12 02:00:09;;;;;;;7.75;5.40;;;5.50;99.90;;;;;;5015268;28;20767;-83
2022/04/12 02:02:35;;;;;;;9.48;5.82;;;5.50;99.90;;;;;;5023342;28;20108;-84
2022/04/12 02:05:00;;;;;;;7.22;5.40;;;5.50;99.90;;;;;;5032830;28;20109;-77
2022/04/12 02:07:27;;;;;;;8.57;5.95;;;5.50;99.90;;;;;;5033214;28;20471;-81
2022/04/12 02:09:52;;;;;;;8.50;5.85;;;5.50;99.90;;;;;;5033598;28;20021;-84
2022/04/12 02:12:18;;;;;;;8.23;5.18;;;5.60;99.90;;;;;;5028074;28;20570;-83
2022/04/12 02:14:44;;;;;;;7.70;5.25;;;5.60;99.90;;;;;;5013834;28;20068;-83
2022/04/12 02:17:10;;;;;;;10.40;5.70;;;5.60;99.90;;;;;;5013868;28;20033;-83
2022/04/12 02:19:35;;;;;;;8.70;4.97;;;5.50;99.90;;;;;;5013804;28;20372;-83
2022/04/12 02:22:01;;;;;;;7.47;5.22;;;5.50;99.90;;;;;;5012876;28;20026;-82
2022/04/12 02:24:27;;;;;;;6.95;4.97;;;5.50;99.90;;;;;;5013632;28;20030;-83
2022/04/12 02:26:52;;;;;;;10.15;5.57;;;5.40;99.90;;;;;;5013927;28;20463;-83
2022/04/12 02:29:18;;;;;;;9.88;5.60;;;5.40;99.90;;;;;;5012906;28;20041;-83
2022/04/12 02:31:43;;;;;;;6.70;5.13;;;5.40;99.90;;;;;;5013554;28;20021;-83
2022/04/12 02:34:09;;;;;;;10.43;5.70;;;5.40;99.90;;;;;;5029951;28;20395;-82
2022/04/12 02:36:35;;;;;;;8.55;5.32;;;5.30;99.90;;;;;;5033090;28;20033;-82
2022/04/12 02:39:01;;;;;;;7.00;5.25;;;5.30;99.90;;;;;;5031927;28;20036;-77
2022/04/12 02:41:26;;;;;;;8.13;5.45;;;5.30;99.90;;;;;;5032685;28;20041;-82
2022/04/12 02:43:52;;;;;;;8.25;4.97;;;5.20;99.90;;;;;;5018871;28;20026;-83
2022/04/12 02:46:18;;;;;;;8.40;5.45;;;5.20;99.90;;;;;;5007455;28;20032;-83
2022/04/12 02:48:43;;;;;;;9.88;5.63;;;5.10;99.90;;;;;;5032778;28;20360;-83
2022/04/12 02:51:09;;;;;;;7.10;5.28;;;5.10;99.90;;;;;;5009687;28;20467;-83
2022/04/12 02:53:35;;;;;;;9.40;5.15;;;5.10;99.90;;;;;;5034859;28;20045;-82
2022/04/12 02:56:01;;;;;;;7.82;5.30;;;5.00;99.90;;;;;;5051663;28;20094;-77
2022/04/12 02:58:26;;;;;;;7.90;5.88;;;5.00;99.90;;;;;;5061616;28;20101;-81
2022/04/12 03:00:52;;;;;;;9.75;6.57;;;5.00;99.90;;;;;;5051730;28;20032;-81
2022/04/12 03:03:18;;;;;;;7.68;5.35;;;4.90;99.90;;;;;;5042642;28;20389;-82
2022/04/12 03:05:43;;;;;;;10.65;6.03;;;4.90;99.90;;;;;;5051520;28;20033;-82
2022/04/12 03:08:09;;;;;;;10.25;6.13;;;4.90;99.90;;;;;;5052114;28;20028;-82
2022/04/12 03:10:35;;;;;;;8.68;5.55;;;4.90;99.90;;;;;;5052502;28;20032;-82
2022/04/12 03:13:00;;;;;;;9.48;5.95;;;4.90;99.90;;;;;;5040763;28;20025;-75
2022/04/12 03:15:26;;;;;;;7.47;5.88;;;4.80;99.90;;;;;;5032040;28;20101;-83
2022/04/12 03:17:51;;;;;;;9.05;6.28;;;4.80;99.90;;;;;;5032453;28;20057;-83
2022/04/12 03:20:17;;;;;;;10.15;5.90;;;4.80;99.90;;;;;;5031509;28;20032;-82
2022/04/12 03:22:43;;;;;;;10.23;6.40;;;4.80;99.90;;;;;;5046798;28;20108;-82
2022/04/12 03:25:12;;;;;;;11.02;6.38;;;4.80;99.90;;;;;;5051130;28;20032;-82
2022/04/12 03:27:37;;;;;;;9.27;6.07;;;4.70;99.90;;;;;;5052345;28;20029;-82
2022/04/12 03:30:05;;;;;;;8.25;6.03;;;4.70;99.90;;;;;;5051055;28;20044;-78
2022/04/12 03:32:30;;;;;;;8.88;5.75;;;4.70;99.90;;;;;;5038014;28;20375;-82
2022/04/12 03:34:56;;;;;;;9.02;6.20;;;4.70;99.90;;;;;;5031225;28;20029;-82
2022/04/12 03:37:22;;;;;;;14.40;6.75;;;4.60;99.90;;;;;;5031653;28;20037;-82
2022/04/12 03:39:50;;;;;;;10.93;6.30;;;4.60;99.90;;;;;;5032453;28;20112;-82
2022/04/12 03:42:18;;;;;;;8.30;6.13;;;4.50;99.90;;;;;;5053752;28;20037;-81
2022/04/12 03:44:44;;;;;;;7.18;5.63;;;4.50;99.90;;;;;;5054096;28;20124;-83
2022/04/12 03:47:10;;;;;;;10.13;6.47;;;4.40;99.90;;;;;;5041582;28;20021;-84
2022/04/12 03:49:35;;;;;;;10.85;6.43;;;4.40;99.90;;;;;;5040003;28;20497;-81
2022/04/12 03:52:01;;;;;;;9.55;5.78;;;4.50;99.90;;;;;;5039716;28;20034;-78
2022/04/12 03:54:26;;;;;;;8.63;5.93;;;4.50;99.90;;;;;;5016535;28;20060;-82
2022/04/12 03:56:52;;;;;;;11.20;7.07;;;4.50;99.90;;;;;;5013947;28;20048;-81
2022/04/12 03:59:18;;;;;;;8.20;6.13;;;4.40;99.90;;;;;;5023454;28;20038;-78
2022/04/12 04:01:43;;;;;;;9.65;6.35;;;4.40;99.90;;;;;;5036254;28;20364;-82
2022/04/12 04:04:09;;;;;;;7.80;5.95;;;4.40;99.90;;;;;;5044127;28;20022;-80
2022/04/12 04:06:35;;;;;;;10.38;6.38;;;4.40;99.90;;;;;;5039339;28;20089;-79
2022/04/12 04:09:01;;;;;;;8.77;6.05;;;4.40;99.90;;;;;;5019485;28;20429;-77
2022/04/12 04:11:27;;;;;;;8.10;6.40;;;4.40;99.90;;;;;;5022306;28;20025;-80
2022/04/12 04:13:52;;;;;;;10.23;6.75;;;4.40;99.90;;;;;;5036157;28;20040;-80
2022/04/12 04:16:18;;;;;;;9.60;6.30;;;4.40;99.90;;;;;;5035430;28;20138;-80
2022/04/12 04:18:43;;;;;;;13.38;6.85;;;4.40;99.90;;;;;;5020656;28;20386;-80
2022/04/12 04:21:09;;;;;;;12.00;6.30;;;4.40;99.90;;;;;;5015803;28;20030;-81
2022/04/12 04:23:35;;;;;;;9.55;6.72;;;4.40;99.90;;;;;;5018577;28;20033;-79
2022/04/12 04:26:01;;;;;;;9.82;6.00;;;4.40;99.90;;;;;;5025693;28;20026;-78
2022/04/12 04:28:29;;;;;;;10.07;6.13;;;4.50;99.90;;;;;;5034623;28;20378;-79
2022/04/12 04:30:56;;;;;;;9.45;6.00;;;4.50;99.90;;;;;;5034875;28;20021;-79
2022/04/12 04:33:21;;;;;;;9.45;5.55;;;4.40;99.90;;;;;;5034465;28;20634;-80
2022/04/12 04:35:49;;;;;;;7.95;6.03;;;4.40;99.90;;;;;;5035181;28;20031;-79
2022/04/12 04:38:15;;;;;;;9.23;5.90;;;4.40;99.90;;;;;;5034501;28;20033;-80
2022/04/12 04:40:40;;;;;;;9.32;6.65;;;4.30;99.90;;;;;;5033467;28;20037;-80
2022/04/12 04:43:07;;;;;;;8.57;6.15;;;4.30;99.90;;;;;;5014284;28;20038;-75
2022/04/12 04:45:33;;;;;;;10.52;6.40;;;4.30;99.90;;;;;;5003332;28;20028;-80
2022/04/12 04:48:01;;;;;;;11.02;6.78;;;4.30;99.90;;;;;;5035431;28;20045;-80
2022/04/12 04:50:31;;;;;;;12.73;6.68;;;4.20;99.90;;;;;;5034215;28;20378;-80
2022/04/12 04:52:59;;;;;;;10.02;6.75;;;4.20;99.90;;;;;;5032203;28;20052;-78
2022/04/12 04:55:25;;;;;;;9.35;6.15;;;4.30;99.90;;;;;;5054163;28;20021;-80
2022/04/12 04:57:55;;;;;;;9.40;6.78;;;4.20;99.90;;;;;;5054581;28;20029;-81
2022/04/12 05:00:22;;;;;;;11.70;6.78;;;4.20;99.90;;;;;;5054222;28;20120;-80
2022/04/12 05:02:52;;;;;;;12.75;7.60;;;4.20;99.90;;;;;;5052976;28;20029;-80
2022/04/12 05:05:18;;;;;;;;;;;4.30;99.90;;;;;;5054732;28;20046;-80
2022/04/12 05:07:48;;;;;;;11.57;7.80;;;4.30;99.90;;;;;;5054623;28;19999;-81
2022/04/12 05:10:19;;;;;;;11.52;7.72;;;4.30;99.90;;;;;;5053446;28;20470;-81
2022/04/12 05:12:45;;;;;;;12.00;7.30;;;4.30;99.90;;;;;;5037367;28;20467;-81
2022/04/12 05:15:11;;;;;;;11.18;7.00;;;4.40;99.90;;;;;;5053623;28;20028;-78
2022/04/12 05:17:36;;;;;;;12.20;7.05;;;4.40;99.90;;;;;;5035885;28;20042;-76
2022/04/12 05:20:05;;;;;;;13.85;7.75;;;4.50;99.90;;;;;;5033941;28;20049;-81
2022/04/12 05:22:31;;;;;;;10.80;7.10;;;4.50;99.90;;;;;;5051318;28;20035;-80
2022/04/12 05:24:56;;;;;;;10.38;6.70;;;4.60;99.90;;;;;;5054068;28;20033;-80
2022/04/12 05:27:22;;;;;;;10.93;7.25;;;4.60;99.90;;;;;;5053616;28;20032;-79
2022/04/12 05:29:48;;;;;;;9.07;6.95;;;4.60;99.90;;;;;;5054432;28;20107;-78
2022/04/12 05:32:14;;;;;;;10.43;7.40;;;4.70;99.90;;;;;;5038564;28;20039;-81
2022/04/12 05:34:40;;;;;;;8.73;6.00;;;4.80;99.90;;;;;;5040185;28;20081;-80
2022/04/12 05:37:07;;;;;;;10.63;6.75;;;4.80;99.90;;;;;;5040190;28;20363;-76
2022/04/12 05:39:32;;;;;;;14.27;7.60;;;4.90;99.90;;;;;;5054320;28;20033;-80
2022/04/12 05:42:02;;;;;;;9.15;6.35;;;5.00;99.90;;;;;;5042211;28;20042;-81
2022/04/12 05:44:28;;;;;;;14.35;6.88;;;5.10;99.90;;;;;;5033537;28;20049;-79
2022/04/12 05:46:55;;;;;;;11.18;6.68;;;5.30;99.90;;;;;;5050961;28;20040;-76
2022/04/12 05:49:21;;;;;;;10.95;7.03;;;5.40;99.90;;;;;;5053366;28;20112;-78
2022/04/12 05:51:47;;;;;;;10.30;7.10;;;5.50;99.90;;;;;;5053318;28;20108;-73
2022/04/12 05:54:13;;;;;;;11.65;7.45;;;5.60;99.90;;;;;;5055156;28;20071;-77
2022/04/12 05:56:39;;;;;;;10.82;7.32;;;5.80;99.90;;;;;;5053697;28;20037;-73
2022/04/12 05:59:06;;;;;;;11.93;6.85;;;5.90;99.90;;;;;;5034328;28;20064;-74
2022/04/12 06:01:32;;;;;;;11.00;6.47;;;6.00;99.90;;;;;;5041499;28;20025;-74
2022/04/12 06:03:57;;;;;;;12.60;6.93;;;6.10;99.90;;;;;;5053328;28;20025;-73
2022/04/12 06:06:23;;;;;;;12.93;7.00;;;6.20;99.90;;;;;;5038936;28;20040;-73
2022/04/12 06:08:49;;;;;;;8.95;6.15;;;6.40;99.90;;;;;;5040802;28;20108;-72
2022/04/12 06:11:15;;;;;;;8.88;5.75;;;6.50;99.90;;;;;;5045056;28;20080;-73
2022/04/12 06:13:40;;;;;;;11.15;6.90;;;6.60;99.90;;;;;;5050282;28;20028;-72
2022/04/12 06:16:06;;;;;;;8.23;6.07;;;6.80;99.90;;;;;;5046111;28;20028;-73
2022/04/12 06:18:32;;;;;;;13.85;7.47;;;6.90;99.90;;;;;;5032676;28;20037;-73
2022/04/12 06:20:57;;;;;;;11.48;6.57;;;7.10;99.90;;;;;;5031993;28;20036;-73
2022/04/12 06:23:23;;;;;;;10.25;6.68;;;7.30;99.90;;;;;;5031260;28;20107;-72
2022/04/12 06:25:48;;;;;;;10.68;6.28;;;7.50;99.90;;;;;;5032157;28;20029;-73
2022/04/12 06:28:14;;;;;;;12.10;6.30;;;7.80;99.90;;;;;;5033061;28;20117;-72
2022/04/12 06:30:40;;;;;;;12.07;6.60;;;8.00;99.90;;;;;;5035103;28;20379;-72
2022/04/12 06:33:06;;;;;;;13.85;6.30;;;8.20;99.90;;;;;;5036262;28;20017;-72
2022/04/12 06:35:31;;;;;;;10.52;7.43;;;8.30;99.90;;;;;;5036524;28;20112;-72
2022/04/12 06:37:57;;;;;;;11.18;6.82;;;8.40;99.90;;;;;;5055324;28;20033;-73
2022/04/12 06:40:24;;;;;;;10.57;6.72;;;8.50;99.90;;;;;;5034002;28;20383;-72
2022/04/12 06:42:51;;;;;;;12.30;6.95;;;8.60;99.90;;;;;;5047930;28;20029;-72
2022/04/12 06:45:17;;;;;;;10.30;6.75;;;8.70;99.90;;;;;;5046263;28;20383;-71
2022/04/12 06:47:43;;;;;;;9.00;6.30;;;8.80;99.90;;;;;;5015191;28;20026;-72
2022/04/12 06:50:10;;;;;;;9.00;6.38;;;8.90;99.90;;;;;;5038797;28;20458;-72
2022/04/12 06:52:43;;;;;;;9.95;6.43;;;9.00;99.90;;;;;;5068702;28;20907;-71
2022/04/12 06:55:08;;;;;;;9.60;5.75;;;9.10;99.90;;;;;;5068625;28;20083;-71
2022/04/12 06:57:36;;;;;;;8.25;5.63;;;9.30;99.90;;;;;;5068215;28;20446;-71
2022/04/12 07:00:04;;;;;;;6.40;4.85;;;9.40;99.90;;;;;;5067364;28;20481;-71
2022/04/12 07:02:30;;;;;;;8.70;5.68;;;9.60;99.90;;;;;;5067808;28;20120;-71
2022/04/12 07:04:56;;;;;;;8.95;4.85;;;9.70;99.90;;;;;;5066819;28;20104;-71
2022/04/12 07:07:21;;;;;;;8.00;5.15;;;9.90;99.90;;;;;;5068001;28;20029;-71
2022/04/12 07:09:47;;;;;;;7.47;5.15;;;10.10;99.90;;;;;;5066327;28;20052;-71
2022/04/12 07:12:12;;;;;;;9.85;5.30;;;10.20;99.90;;;;;;5067915;28;20032;-71
2022/04/12 07:14:38;;;;;;;9.55;5.00;;;10.40;99.80;;;;;;5068049;28;20033;-71
2022/04/12 07:17:05;;;;;;;8.65;5.20;;;10.50;98.40;;;;;;5068354;28;20489;-71
2022/04/12 07:19:31;;;;;;;8.18;5.38;;;10.70;97.90;;;;;;5067778;28;20067;-71
2022/04/12 07:21:56;;;;;;;7.07;5.40;;;10.80;97.00;;;;;;5068297;28;20037;-71
2022/04/12 07:24:22;;;;;;;10.82;5.25;;;11.00;96.50;;;;;;5057729;28;20070;-70
2022/04/12 07:26:48;;;;;;;10.48;5.85;;;11.10;95.70;;;;;;5060362;28;20029;-71
2022/04/12 07:29:14;;;;;;;9.27;5.45;;;11.20;94.50;;;;;;5068333;28;20032;-71
2022/04/12 07:31:39;;;;;;;8.80;4.80;;;11.30;94.50;;;;;;5067629;28;20474;-71
2022/04/12 07:34:07;;;;;;;7.07;4.65;;;11.40;93.70;;;;;;5066914;28;20044;-71
2022/04/12 07:36:32;;;;;;;8.25;5.38;;;11.40;93.30;;;;;;5067201;28;20028;-71
2022/04/12 07:38:58;;;;;;;7.50;5.00;;;11.50;92.40;;;;;;5067992;28;20021;-70
2022/04/12 07:41:24;;;;;;;6.07;4.53;;;11.60;92.60;;;;;;5066357;28;20033;-71
2022/04/12 07:43:52;;;;;;;6.45;4.85;;;11.60;92.50;;;;;;5067484;28;20182;-71
2022/04/12 07:46:17;;;;;;;6.63;4.70;;;11.70;92.70;;;;;;5066293;28;20024;-70
2022/04/12 07:48:44;;;;;;;7.65;4.93;;;11.80;92.40;;;;;;5067610;28;20017;-71
2022/04/12 07:51:10;;;;;;;6.45;4.38;;;12.00;91.10;;;;;;5066870;28;20079;-71
2022/04/12 07:53:37;;;;;;;5.72;4.38;;;12.10;91.20;;;;;;5066132;28;20033;-71
2022/04/12 07:56:03;;;;;;;8.65;4.07;;;12.20;91.20;;;;;;5067794;28;20031;-71
2022/04/12 07:58:28;;;;;;;6.40;4.45;;;12.40;90.60;;;;;;5066716;28;20060;-71
2022/04/12 08:00:54;;;;;;;7.32;4.40;;;12.60;89.10;;;;;;5067601;28;20052;-70
2022/04/12 08:03:21;;;;;;;6.88;4.15;;;;;;;;;;5056898;28;20106;-71
2022/04/12 08:05:51;;;;;;;10.30;4.95;;;13.00;84.80;;;;;;5054138;28;20355;-70
2022/04/12 08:08:17;;;;;;;10.18;5.18;;;13.30;82.70;;;;;;5053644;28;20053;-71
2022/04/12 08:10:43;;;;;;;8.50;5.00;;;13.40;81.70;;;;;;5054075;28;20072;-70
2022/04/12 08:13:09;;;;;;;8.18;4.68;;;13.60;80.10;;;;;;5053878;28;20071;-71
2022/04/12 08:15:36;;;;;;;6.22;3.58;;;13.70;78.30;;;;;;5053219;28;20025;-71
2022/04/12 08:18:02;;;;;;;8.00;4.18;;;13.80;77.60;;;;;;5053756;28;20025;-71
2022/04/12 08:20:28;;;;;;;8.82;4.63;;;13.90;77.40;;;;;;5053029;28;20021;-70
2022/04/12 08:22:54;;;;;;;8.23;4.15;;;14.10;77.70;;;;;;5054176;28;20029;-71
2022/04/12 08:25:19;;;;;;;8.23;3.83;;;14.10;76.30;;;;;;5053010;28;20029;-71
2022/04/12 08:27:45;;;;;;;6.65;4.55;;;14.20;76.70;;;;;;5054001;28;20367;-71
2022/04/12 08:30:12;;;;;;;7.00;3.90;;;14.30;76.50;;;;;;5053740;28;20040;-71
2022/04/12 08:32:37;;;;;;;12.50;5.35;;;14.40;76.10;;;;;;5053240;28;20068;-72
2022/04/12 08:35:05;;;;;;;8.40;4.70;;;14.60;75.40;;;;;;5053079;28;20055;-72
2022/04/12 08:37:31;;;;;;;9.65;5.72;;;14.80;75.30;;;;;;5051433;28;20530;-71
2022/04/12 08:39:56;;;;;;;10.63;5.50;;;15.00;76.10;;;;;;5053167;28;20108;-73
2022/04/12 08:42:22;;;;;;;8.23;4.53;;;15.10;75.70;;;;;;5053453;28;20033;-71
2022/04/12 08:44:49;;;;;;;8.23;5.45;;;15.20;76.90;;;;;;5053464;28;20036;-71
2022/04/12 08:47:17;;;;;;;9.10;5.60;;;15.40;75.00;;;;;;5038099;28;20212;-71
2022/04/12 08:49:43;;;;;;;9.35;4.90;;;15.50;75.60;;;;;;5053616;28;20422;-71
2022/04/12 08:52:13;;;;;;;7.60;5.00;;;15.60;74.10;;;;;;5052852;28;20080;-71
2022/04/12 08:54:42;;;;;;;;;;;15.70;74.70;;;;;;5053317;28;20025;-71
2022/04/12 08:57:10;;;;;;;8.30;5.47;;;15.90;73.90;;;;;;5053147;28;20380;-71
2022/04/12 08:59:36;;;;;;;12.57;5.18;;;16.10;74.00;;;;;;5052672;28;20024;-71
2022/04/12 09:02:03;;;;;;;6.85;4.88;;;16.40;72.30;;;;;;5053305;28;20505;-71
2022/04/12 09:04:29;;;;;;;9.98;4.55;;;16.60;70.40;;;;;;5052136;28;20032;-71
2022/04/12 09:06:59;;;;;;;8.60;3.55;;;16.70;69.40;;;;;;5052855;28;20039;-71
2022/04/12 09:09:27;;;;;;;7.35;4.32;;;16.80;67.50;;;;;;5051980;28;20424;-71
2022/04/12 09:12:11;;;;;;;7.75;3.40;;;17.00;67.50;;;;;;5052673;28;20056;-71
2022/04/12 09:14:46;;;;;;;8.30;3.88;;;17.10;67.20;;;;;;5051218;28;20037;-70
2022/04/12 09:17:30;;;;;;;26.17;4.88;;;17.30;64.40;;;;;;5052643;28;20048;-71
2022/04/12 09:19:55;;;;;;;4.78;3.25;;;17.20;63.20;;;;;;5052998;28;20036;-70
2022/04/12 09:22:23;;;;;;;6.95;4.00;;;17.20;62.30;;;;;;5051618;28;20037;-71
2022/04/12 09:24:50;;;;;;;9.00;3.30;;;17.30;63.60;;;;;;5052490;28;20029;-71
2022/04/12 09:27:18;;;;;;;6.88;2.45;;;17.30;61.30;;;;;;5050817;28;20118;-71
2022/04/12 09:29:48;;;;;;;6.55;2.28;;;17.40;60.00;;;;;;5051482;28;20915;-71
2022/04/12 09:32:15;;;;;;;10.25;3.30;;;17.60;57.80;;;;;;5052539;28;20065;-71
2022/04/12 09:34:44;;;;;;;7.28;2.33;;;17.90;55.80;;;;;;5051938;28;20063;-71
2022/04/12 09:37:20;;;;;;;13.77;2.58;;;18.10;56.10;;;;;;5052129;28;20036;-71
2022/04/12 09:39:54;;;;;;;3.00;2.13;;;18.30;55.20;;;;;;5052172;28;20036;-70
2022/04/12 09:42:35;;;;;;;3.80;2.25;;;18.50;55.00;;;;;;5051014;28;20505;-70
2022/04/12 09:45:05;;;;;;;4.22;3.25;;;18.70;59.20;;;;;;5052220;28;20029;-71
2022/04/12 09:47:32;;;;;;;7.90;3.75;;;19.00;62.80;;;;;;5051609;28;20029;-70
2022/04/12 09:49:59;;;;;;;7.28;3.33;;;18.90;59.60;;;;;;5051896;28;20377;-71
2022/04/12 09:52:25;;;;;;;5.40;3.65;;;18.90;59.40;;;;;;5050389;28;20055;-70
2022/04/12 09:54:51;;;;;;;5.57;3.33;;;19.00;59.40;;;;;;5051657;28;20401;-71
2022/04/12 09:57:17;;;;;;;7.63;3.85;;;19.10;59.40;;;;;;5051518;28;20444;-72
2022/04/12 09:59:44;;;;;;;7.53;3.75;;;19.20;58.60;;;;;;5050799;28;20386;-71
2022/04/12 10:02:11;;;;;;;8.75;3.42;;;19.30;58.20;;;;;;5051745;28;20425;-72
2022/04/12 10:04:38;;;;;;;9.13;3.15;;;19.40;57.00;;;;;;5051545;28;20025;-72
2022/04/12 10:07:05;;;;;;;7.75;4.07;;;19.30;55.90;;;;;;5051641;28;20462;-72
2022/04/12 10:09:36;;;;;;;7.10;3.10;;;19.30;59.10;;;;;;5051095;28;20021;-72
2022/04/12 10:12:02;;;;;;;13.98;3.17;;;19.40;55.60;;;;;;5051495;28;20033;-71
2022/04/12 10:14:29;;;;;;;3.70;2.67;;;19.40;55.90;;;;;;5051356;28;20028;-71
2022/04/12 10:16:57;;;;;;;6.30;2.80;;;19.50;55.70;;;;;;5051337;28;20044;-71
2022/04/12 10:19:23;;;;;;;8.50;2.85;;;19.60;54.50;;;;;;5051211;28;20029;-71
2022/04/12 10:21:49;;;;;;;29.55;3.65;;;19.80;53.00;;;;;;5051336;28;20071;-71
2022/04/12 10:24:16;;;;;;;8.60;3.22;;;19.80;53.50;;;;;;5050452;28;20458;-71
2022/04/12 10:26:45;;;;;;;16.13;3.40;;;19.80;53.40;;;;;;5049689;28;20056;-71
2022/04/12 10:29:13;;;;;;;2.85;2.28;;;19.80;53.20;;;;;;5050317;28;20049;-72
2022/04/12 10:31:52;;;;;;;4.20;2.72;;;19.90;53.10;;;;;;5050734;28;20029;-72
2022/04/12 10:34:18;;;;;;;4.53;2.33;;;20.00;52.50;;;;;;5051111;28;20074;-73
2022/04/12 10:37:05;;;;;;;8.75;3.10;;;20.10;52.10;;;;;;5050716;28;20041;-72
2022/04/12 10:39:45;;;;;;;5.00;2.90;;;20.30;52.10;;;;;;5041745;28;20024;-72
2022/04/12 10:42:23;;;;;;;4.72;2.50;;;20.40;52.60;;;;;;5051434;28;20029;-72
2022/04/12 10:44:55;;;;;;;6.60;2.47;;;20.60;50.70;;;;;;5051579;28;20505;-72
2022/04/12 10:47:22;;;;;;;3.40;1.95;;;20.90;47.90;;;;;;5049819;28;20025;-72
2022/04/12 10:49:53;;;;;;;3.80;2.13;;;20.90;49.00;;;;;;5051656;28;20029;-72
2022/04/12 10:52:19;;;;;;;5.82;2.42;;;21.00;48.20;;;;;;5050693;28;20098;-71
2022/04/12 10:54:47;;;;;;;3.33;1.90;;;21.00;49.00;;;;;;5051455;28;20450;-72
2022/04/12 10:57:19;;;;;;;3.92;2.20;;;21.10;47.70;;;;;;5050859;28;20036;-71
2022/04/12 10:59:53;;;;;;;5.05;1.92;;;21.20;47.30;;;;;;5051539;28;20029;-72
2022/04/12 11:02:19;;;;;;;4.35;1.85;;;21.40;46.40;;;;;;5049727;28;20186;-71
2022/04/12 11:04:45;;;;;;;3.88;1.75;;;21.50;47.20;;;;;;5050794;28;20541;-72
2022/04/12 11:07:34;;;;;;;2.65;1.35;;;21.70;45.90;;;;;;5050936;28;20029;-72
2022/04/12 11:10:11;;;;;;;2.67;1.95;;;21.90;46.70;;;;;;5051065;28;20111;-72
2022/04/12 11:12:44;;;;;;;2.45;1.67;;;22.10;46.10;;;;;;5050136;28;20076;-71
2022/04/12 11:15:24;;;;;;;3.63;1.63;;;22.40;44.80;;;;;;5051511;28;20052;-72
2022/04/12 11:18:13;;;;;;;5.53;2.42;;;22.70;44.70;;;;;;5051109;28;20110;-72
2022/04/12 11:20:46;;;;;;;3.92;1.83;;;22.80;44.60;;;;;;5050047;28;20591;-72
2022/04/12 11:23:13;;;;;;;5.03;2.33;;;23.00;44.90;;;;;;5050753;28;20421;-71
2022/04/12 11:25:50;;;;;;;5.10;1.77;;;23.00;44.20;;;;;;5050105;28;20025;-71
2022/04/12 11:28:22;;;;;;;2.75;1.85;;;22.80;45.20;;;;;;5050837;28;20557;-72
2022/04/12 11:30:58;;;;;;;5.22;1.90;;;22.80;45.30;;;;;;5051072;28;20467;-72
2022/04/12 11:33:29;;;;;;;5.50;2.15;;;23.00;45.30;;;;;;5050328;28;20029;-72
2022/04/12 11:35:56;;;;;;;9.07;2.20;;;23.20;44.90;;;;;;5050079;28;20142;-76
2022/04/12 11:38:24;;;;;;;5.05;2.22;;;23.60;43.70;;;;;;5051653;28;20025;-75
2022/04/12 11:40:50;;;;;;;5.50;1.90;;;23.60;43.70;;;;;;5053770;28;20489;-73
2022/04/12 11:43:27;;;;;;;2.20;1.60;;;23.70;44.30;;;;;;5053985;28;20055;-73
2022/04/12 11:46:01;;;;;;;4.32;2.03;;;23.90;44.40;;;;;;5054590;28;20416;-74
2022/04/12 11:48:31;;;;;;;3.20;1.80;;;24.10;44.70;;;;;;5054011;28;20025;-70
2022/04/12 11:50:57;;;;;;;;;;;24.30;43.20;;;;;;5054505;28;20142;-72
2022/04/12 11:53:25;;;;;;;6.80;2.28;;;24.40;43.20;;;;;;5053262;28;19915;-71
2022/04/12 11:55:51;;;;;;;3.60;1.85;;;24.40;44.60;;;;;;5054306;28;20099;-79
2022/04/12 11:58:22;;;;;;;2.75;1.77;;;24.40;43.40;;;;;;5053674;28;20039;-72
2022/04/12 12:00:49;;;;;;;5.63;1.50;;;24.40;43.50;;;;;;5053552;28;20035;-72
2022/04/12 12:03:16;;;;;;;16.27;1.98;;;24.40;43.90;;;;;;5053221;28;20037;-73
2022/04/12 12:05:44;;;;;;;3.35;1.98;;;24.40;43.80;;;;;;5053013;28;20253;-72
2022/04/12 12:08:10;;;;;;;4.40;2.13;;;24.50;43.30;;;;;;5053409;28;20036;-74
2022/04/12 12:10:37;;;;;;;3.55;1.70;;;24.80;42.80;;;;;;5053445;28;20029;-72
2022/04/12 12:13:07;;;;;;;3.72;1.70;;;24.80;43.30;;;;;;5054254;28;20033;-72
2022/04/12 12:15:34;;;;;;;2.35;1.55;;;24.90;43.40;;;;;;5053363;28;20029;-73
2022/04/12 12:18:06;;;;;;;4.22;1.48;;;24.90;42.60;;;;;;5053198;28;20102;-73
2022/04/12 12:20:37;;;;;;;5.60;1.65;;;24.90;43.00;;;;;;5053353;28;21072;-72
2022/04/12 12:23:04;;;;;;;2.17;1.25;;;25.10;43.00;;;;;;5053512;28;20052;-71
2022/04/12 12:25:50;;;;;;;3.15;1.48;;;25.10;43.10;;;;;;5052949;28;20028;-72
2022/04/12 12:28:21;;;;;;;4.13;1.45;;;25.20;42.50;;;;;;5052442;28;20029;-73
2022/04/12 12:30:49;;;;;;;4.15;1.17;;;25.10;41.70;;;;;;5053809;28;20107;-74
2022/04/12 12:33:16;;;;;;;5.47;1.58;;;25.40;42.70;;;;;;5053673;28;20502;-74
2022/04/12 12:35:46;;;;;;;2.25;1.35;;;25.60;42.70;;;;;;5052818;28;20115;-75
2022/04/12 12:38:12;;;;;;;5.07;1.35;;;25.60;41.80;;;;;;5053537;28;20083;-70
2022/04/12 12:40:39;;;;;;;3.08;1.10;;;25.70;42.50;;;;;;5041063;28;20032;-69
2022/04/12 12:43:10;;;;;;;2.85;1.33;;;25.80;41.30;;;;;;5052410;28;20033;-69
2022/04/12 12:45:39;;;;;;;1.77;1.10;;;25.70;40.60;;;;;;5051397;28;20048;-70
2022/04/12 12:48:09;;;;;;;2.93;1.40;;;25.60;41.70;;;;;;5053293;28;20028;-70
2022/04/12 12:50:38;;;;;;;4.43;1.20;;;25.70;41.70;;;;;;5052183;28;20284;-69
2022/04/12 12:53:05;;;;;;;1.95;1.30;;;25.80;41.60;;;;;;5053125;28;20052;-69